Time;durP1;ratioP1;P1;durP2;ratioP2;P2;SDS_P1;SDS_P2;PMS_P1;PMS_P2;Temp;Humidity;BMP_temperature;BMP_pressure;BME280_temperature;BME280_humidity;BME280_pressure;Samples;Min_cycle;Max_cycle;Signal;HPM_P1;HPM_P2
2021/06/16 00:01:36;;;;;;;1.73;1.13;;;;;;;15.92;85.42;98486.81;4989210;28;20222;-64
2021/06/16 00:04:03;;;;;;;1.90;1.27;;;;;;;15.93;85.13;98477.03;5004270;28;20317;-64
2021/06/16 00:06:29;;;;;;;2.28;1.10;;;;;;;15.75;84.65;98476.03;5004221;28;20018;-64
2021/06/16 00:08:54;;;;;;;2.22;1.13;;;;;;;15.73;85.01;98479.69;5004193;28;20030;-64
2021/06/16 00:11:19;;;;;;;2.40;1.23;;;;;;;15.67;85.65;98480.81;5004155;28;20042;-64
2021/06/16 00:13:45;;;;;;;2.97;1.25;;;;;;;15.64;85.66;98474.75;5004090;28;20028;-64
2021/06/16 00:16:10;;;;;;;1.20;1.10;;;;;;;15.62;86.04;98482.78;5004223;28;20373;-64
2021/06/16 00:18:36;;;;;;;1.67;1.25;;;;;;;15.72;85.97;98481.47;5004095;28;20022;-64
2021/06/16 00:21:02;;;;;;;1.23;1.00;;;;;;;15.76;85.31;98476.91;5004163;28;20029;-64
2021/06/16 00:23:27;;;;;;;1.17;1.10;;;;;;;15.56;84.88;98477.72;5004072;28;20022;-64
2021/06/16 00:25:53;;;;;;;1.77;1.10;;;;;;;15.53;85.54;98461.94;5004042;28;20045;-64
2021/06/16 00:28:18;;;;;;;1.55;1.10;;;;;;;15.57;85.02;98466.22;5004063;28;20249;-64
2021/06/16 00:30:44;;;;;;;1.45;1.10;;;;;;;15.53;85.68;98471.72;5005768;28;20328;-64
2021/06/16 00:33:09;;;;;;;1.38;1.23;;;;;;;15.54;85.70;98461.03;4990354;28;20093;-64
2021/06/16 00:35:34;;;;;;;1.20;1.10;;;;;;;15.53;85.91;98456.63;4988180;28;20066;-64
2021/06/16 00:38:00;;;;;;;1.90;1.00;;;;;;;15.43;85.58;98460.59;4988163;28;20075;-64
2021/06/16 00:40:28;;;;;;;1.13;0.93;;;;;;;15.35;85.59;98460.03;4988122;28;20086;-64
2021/06/16 00:42:57;;;;;;;2.10;1.10;;;;;;;15.26;85.82;98467.50;4988063;28;20218;-64
2021/06/16 00:45:24;;;;;;;2.58;1.10;;;;;;;15.23;86.06;98458.72;4987977;28;20026;-64
2021/06/16 00:47:55;;;;;;;2.05;1.58;;;;;;;15.31;85.87;98461.06;4987985;28;20086;-64
2021/06/16 00:50:22;;;;;;;4.32;1.38;;;;;;;15.32;85.69;98464.59;4987931;28;20035;-64
2021/06/16 00:52:48;;;;;;;2.33;1.50;;;;;;;15.38;85.77;98459.06;4988038;28;20203;-64
2021/06/16 00:55:13;;;;;;;2.65;1.30;;;;;;;15.34;85.50;98463.59;4987854;28;20033;-64
2021/06/16 00:57:39;;;;;;;2.22;1.23;;;;;;;15.18;86.60;98460.72;4987719;28;20023;-64
2021/06/16 01:00:09;;;;;;;2.78;1.27;;;;;;;15.27;86.21;98470.06;4987511;28;20043;-64
2021/06/16 01:03:00;;;;;;;1.98;1.30;;;;;;;15.25;85.65;98463.97;5002585;28;20023;-64
2021/06/16 01:05:30;;;;;;;1.20;1.10;;;;;;;15.07;85.93;98462.06;5007187;28;20031;-64
2021/06/16 01:08:01;;;;;;;1.10;1.00;;;;;;;14.98;85.96;98463.31;5007345;28;20306;-64
2021/06/16 01:10:29;;;;;;;2.05;1.20;;;;;;;14.87;86.16;98470.78;5007031;28;20022;-64
2021/06/16 01:13:26;;;;;;;1.85;1.10;;;;;;;14.88;86.93;98469.03;5006874;28;20227;-64
2021/06/16 01:16:15;;;;;;;2.58;1.10;;;;;;;15.00;86.32;98463.25;5006935;28;20030;-64
2021/06/16 01:18:55;;;;;;;1.20;1.10;;;;;;;14.99;86.26;98464.16;5006927;28;20026;-64
2021/06/16 01:21:26;;;;;;;4.07;1.33;;;;;;;14.86;85.95;98463.78;5006957;28;20022;-64
2021/06/16 01:24:00;;;;;;;1.23;1.00;;;;;;;14.83;86.02;98463.03;5006885;28;20030;-64
2021/06/16 01:26:38;;;;;;;2.20;1.38;;;;;;;14.68;86.38;98466.28;5006999;28;20061;-64
2021/06/16 01:29:10;;;;;;;4.55;1.30;;;;;;;14.81;86.94;98464.88;5006749;28;20053;-64
2021/06/16 01:31:36;;;;;;;1.95;1.15;;;;;;;14.90;86.26;98459.19;5000314;28;20081;-64
2021/06/16 01:34:03;;;;;;;1.27;1.15;;;;;;;14.88;85.95;98461.06;4987062;28;20357;-64
2021/06/16 01:36:29;;;;;;;1.40;1.10;;;;;;;14.65;85.85;98458.47;4987073;28;20069;-64
2021/06/16 01:38:55;;;;;;;3.15;1.10;;;;;;;14.51;86.94;98458.09;4987043;28;20033;-64
2021/06/16 01:41:22;;;;;;;2.17;1.13;;;;;;;14.65;86.51;98455.81;4986811;28;20374;-64
2021/06/16 01:43:51;;;;;;;1.10;1.00;;;;;;;14.63;85.92;98452.34;4986658;28;20029;-64
2021/06/16 01:46:18;;;;;;;1.95;0.98;;;;;;;14.63;86.34;98447.03;4986885;28;20053;-64
2021/06/16 01:48:46;;;;;;;0.90;0.90;;;;;;;14.46;86.36;98452.13;4986859;28;20125;-64
2021/06/16 01:51:12;;;;;;;1.83;0.88;;;;;;;14.46;86.36;98446.84;4986802;28;20036;-64
2021/06/16 01:53:40;;;;;;;1.00;1.00;;;;;;;14.36;86.53;98442.78;4986721;28;20031;-64
2021/06/16 01:56:07;;;;;;;1.40;1.10;;;;;;;14.45;87.13;98447.72;4986658;28;20022;-64
2021/06/16 01:58:33;;;;;;;1.25;1.17;;;;;;;14.43;86.89;98446.94;4986627;28;20073;-64
2021/06/16 02:01:00;;;;;;;2.20;1.10;;;;;;;14.38;87.19;98440.94;4990075;28;20218;-64
2021/06/16 02:03:26;;;;;;;2.75;1.35;;;;;;;14.29;86.72;98442.16;5006122;28;20018;-64
2021/06/16 02:05:51;;;;;;;1.80;1.15;;;;;;;14.29;86.92;98439.50;5006068;28;20094;-64
2021/06/16 02:08:21;;;;;;;2.17;1.10;;;;;;;14.28;87.51;98434.28;5005959;28;20026;-64
2021/06/16 02:10:49;;;;;;;1.63;1.30;;;;;;;14.25;87.07;98431.72;5005927;28;20029;-64
2021/06/16 02:13:23;;;;;;;1.17;1.05;;;;;;;14.35;87.25;98438.41;5005807;28;20050;-64
2021/06/16 02:15:54;;;;;;;3.33;1.05;;;;;;;14.02;86.03;98435.19;5005865;28;20213;-64
2021/06/16 02:18:23;;;;;;;2.78;1.20;;;;;;;13.94;88.08;98429.31;5005840;28;20085;-64
2021/06/16 02:20:49;;;;;;;1.50;1.20;;;;;;;13.94;88.42;98431.09;5005723;28;20065;-64
2021/06/16 02:23:14;;;;;;;2.00;1.02;;;;;;;14.02;87.90;98429.88;5005667;28;20018;-64
2021/06/16 02:25:40;;;;;;;1.10;1.00;;;;;;;14.04;87.70;98428.06;5005870;28;20022;-64
2021/06/16 02:28:06;;;;;;;1.05;1.00;;;;;;;14.05;87.37;98427.13;5005573;28;20073;-64
2021/06/16 02:30:31;;;;;;;1.77;1.02;;;;;;;14.08;87.14;98424.38;5005285;28;20022;-64
2021/06/16 02:32:57;;;;;;;1.13;1.02;;;;;;;14.11;86.84;98423.41;4986171;28;20027;-64
2021/06/16 02:35:22;;;;;;;0.80;0.80;;;;;;;14.09;86.61;98427.91;4986009;28;20019;-64
2021/06/16 02:37:53;;;;;;;2.97;1.10;;;;;;;14.11;86.94;98426.06;4985935;28;20022;-64
2021/06/16 02:40:19;;;;;;;3.10;1.27;;;;;;;14.15;86.45;98425.03;4985968;28;20073;-64
2021/06/16 02:42:49;;;;;;;1.13;0.90;;;;;;;14.11;86.76;98415.47;4986111;28;20027;-64
2021/06/16 02:45:17;;;;;;;1.38;1.00;;;;;;;14.07;86.41;98416.50;4985798;28;20026;-64
2021/06/16 02:47:47;;;;;;;1.42;0.90;;;;;;;14.01;86.34;98419.34;4985760;28;20373;-64
2021/06/16 02:50:16;;;;;;;1.55;0.90;;;;;;;13.93;86.40;98419.66;4985732;28;20098;-64
2021/06/16 02:52:43;;;;;;;1.50;1.25;;;;;;;14.02;86.38;98421.09;4985628;28;20050;-64
2021/06/16 02:55:10;;;;;;;1.63;1.17;;;;;;;14.06;86.88;98409.47;4984905;28;20053;-64
2021/06/16 02:57:38;;;;;;;0.90;0.80;;;;;;;14.05;86.08;98413.06;4985784;28;20417;-64
2021/06/16 03:00:06;;;;;;;2.03;1.08;;;;;;;13.90;86.19;98414.47;4985770;28;20054;-64
2021/06/16 03:02:33;;;;;;;1.33;0.70;;;;;;;13.93;86.91;98416.13;5001323;28;20022;-64
2021/06/16 03:05:00;;;;;;;0.95;0.80;;;;;;;13.91;86.89;98415.31;5004941;28;20061;-64
2021/06/16 03:07:27;;;;;;;1.08;1.00;;;;;;;13.96;87.19;98416.91;5004873;28;20057;-64
2021/06/16 03:09:54;;;;;;;2.17;1.00;;;;;;;14.00;87.21;98415.88;5004687;28;20218;-64
2021/06/16 03:12:21;;;;;;;1.15;0.90;;;;;;;14.02;86.91;98418.47;5005004;28;20106;-64
2021/06/16 03:14:49;;;;;;;1.38;0.90;;;;;;;14.06;86.63;98414.78;5004775;28;20014;-64
2021/06/16 03:17:17;;;;;;;1.40;1.15;;;;;;;14.07;86.12;98411.19;5004737;28;20028;-64
2021/06/16 03:19:42;;;;;;;1.55;1.00;;;;;;;13.95;86.31;98411.66;5004676;28;20030;-64
2021/06/16 03:22:10;;;;;;;0.98;0.90;;;;;;;13.92;87.08;98417.91;5004695;28;20026;-64
2021/06/16 03:24:37;;;;;;;1.63;0.90;;;;;;;13.78;87.30;98417.56;5004595;28;20022;-64
2021/06/16 03:27:04;;;;;;;2.92;1.10;;;;;;;13.77;87.46;98407.91;5004627;28;20030;-64
2021/06/16 03:29:32;;;;;;;1.85;1.00;;;;;;;13.87;86.61;98413.72;5004545;28;20228;-64
2021/06/16 03:31:59;;;;;;;0.90;0.90;;;;;;;13.84;86.89;98411.16;4993519;28;20027;-64
2021/06/16 03:34:25;;;;;;;0.80;0.80;;;;;;;13.84;86.75;98413.81;4985091;28;20199;-64
2021/06/16 03:36:52;;;;;;;0.82;0.70;;;;;;;13.89;86.58;98412.72;4985055;28;20077;-64
2021/06/16 03:39:19;;;;;;;0.90;0.80;;;;;;;13.87;86.51;98411.06;4985053;28;20191;-64
2021/06/16 03:41:46;;;;;;;1.80;0.80;;;;;;;13.80;86.83;98417.50;4985450;28;20023;-64
2021/06/16 03:44:12;;;;;;;0.60;0.60;;;;;;;13.81;87.00;98414.81;4984977;28;20026;-64
2021/06/16 03:46:40;;;;;;;0.70;0.70;;;;;;;13.79;87.02;98416.63;4984968;28;20078;-64
2021/06/16 03:49:09;;;;;;;0.57;0.57;;;;;;;13.76;87.49;98413.25;4984927;28;20034;-64
2021/06/16 03:51:35;;;;;;;0.50;0.50;;;;;;;13.81;87.00;98405.97;4992231;28;20025;-64
2021/06/16 03:54:10;;;;;;;1.50;0.98;;;;;;;13.88;86.53;98408.38;5004284;28;20050;-64
2021/06/16 03:56:40;;;;;;;2.40;1.00;;;;;;;13.87;86.50;98408.41;5004291;28;20057;-64
2021/06/16 03:59:07;;;;;;;0.75;0.75;;;;;;;13.93;86.45;98411.72;5003870;28;20053;-64
2021/06/16 04:01:32;;;;;;;0.50;0.50;;;;;;;13.95;86.26;98406.38;4984891;28;20337;-64
2021/06/16 04:03:59;;;;;;;1.13;0.73;;;;;;;14.03;86.37;98405.16;4984862;28;20023;-64
2021/06/16 04:06:25;;;;;;;0.70;0.70;;;;;;;14.01;86.33;98401.69;4987823;28;20261;-64
2021/06/16 04:08:51;;;;;;;1.20;0.70;;;;;;;13.93;86.27;98397.63;4988657;28;20030;-64
2021/06/16 04:11:16;;;;;;;2.08;0.90;;;;;;;14.05;86.78;98397.19;5006117;28;20018;-64
2021/06/16 04:13:42;;;;;;;1.20;0.80;;;;;;;14.21;85.69;98398.34;5008055;28;20031;-64
2021/06/16 04:16:09;;;;;;;1.55;0.80;;;;;;;14.17;86.23;98402.00;5008030;28;20068;-64
2021/06/16 04:18:38;;;;;;;1.15;0.80;;;;;;;14.35;85.21;98398.69;5008286;28;20313;-64
2021/06/16 04:21:04;;;;;;;2.20;0.85;;;;;;;14.46;84.55;98392.06;4992291;28;20381;-64
2021/06/16 04:23:30;;;;;;;1.95;0.82;;;;;;;14.55;84.47;98398.78;4988412;28;20023;-64
2021/06/16 04:25:56;;;;;;;1.75;1.10;;;;;;;14.60;83.36;98392.41;4988688;28;20085;-64
2021/06/16 04:28:21;;;;;;;1.50;0.60;;;;;;;14.73;83.71;98392.78;4988375;28;20022;-64
2021/06/16 04:30:46;;;;;;;0.93;0.60;;;;;;;14.88;83.02;98390.38;5001184;28;20249;-64
2021/06/16 04:33:12;;;;;;;0.68;0.68;;;;;;;15.15;82.48;98385.72;5007685;28;20080;-64
2021/06/16 04:35:37;;;;;;;0.70;0.65;;;;;;;15.42;81.00;98384.63;5007743;28;20244;-64
2021/06/16 04:38:03;;;;;;;0.73;0.50;;;;;;;15.70;79.78;98382.50;4990251;28;20018;-64
2021/06/16 04:40:28;;;;;;;2.10;0.93;;;;;;;15.96;78.98;98386.66;4997311;28;20029;-64
2021/06/16 04:42:54;;;;;;;0.57;0.52;;;;;;;16.17;77.78;98391.00;4988068;28;20377;-64
2021/06/16 04:45:19;;;;;;;0.50;0.50;;;;;;;16.40;76.75;98393.47;4988024;28;20046;-64
2021/06/16 04:47:44;;;;;;;0.80;0.50;;;;;;;16.72;75.67;98390.19;4987994;28;20028;-64
2021/06/16 04:50:14;;;;;;;1.85;0.70;;;;;;;16.96;75.23;98395.19;4995338;28;20022;-64
2021/06/16 04:52:40;;;;;;;0.63;0.52;;;;;;;17.37;73.56;98394.97;5007345;28;20023;-64
2021/06/16 04:55:07;;;;;;;1.25;0.68;;;;;;;17.52;73.04;98388.91;5007374;28;20096;-64
2021/06/16 04:57:33;;;;;;;0.68;0.65;;;;;;;17.83;72.47;98381.91;5007240;28;20213;-64
2021/06/16 04:59:58;;;;;;;2.60;0.90;;;;;;;17.97;72.56;98387.34;5001211;28;20038;-64
2021/06/16 05:02:24;;;;;;;0.65;0.63;;;;;;;18.20;72.12;98383.47;4987733;28;20111;-64
2021/06/16 05:04:50;;;;;;;1.55;0.80;;;;;;;18.49;71.94;98388.13;4987699;28;20195;-64
2021/06/16 05:07:15;;;;;;;1.88;0.80;;;;;;;18.62;71.84;98387.38;4987620;28;20018;-64
2021/06/16 05:09:40;;;;;;;0.82;0.70;;;;;;;18.91;71.13;98388.41;4990804;28;20019;-64
2021/06/16 05:12:06;;;;;;;2.35;0.90;;;;;;;19.13;70.20;98383.56;5006935;28;20094;-64
2021/06/16 05:14:32;;;;;;;3.28;0.73;;;;;;;19.29;69.83;98389.75;5006985;28;20018;-64
2021/06/16 05:16:57;;;;;;;2.40;1.08;;;;;;;19.48;68.47;98384.19;5006010;28;20023;-64
2021/06/16 05:19:24;;;;;;;1.67;0.70;;;;;;;19.60;68.12;98386.16;5006452;28;20022;-64
2021/06/16 05:21:50;;;;;;;1.40;0.70;;;;;;;19.56;68.58;98380.16;4987624;28;20029;-64
2021/06/16 05:24:16;;;;;;;1.17;0.70;;;;;;;19.89;68.12;98386.13;4987336;28;20021;-64
2021/06/16 05:26:42;;;;;;;2.33;0.70;;;;;;;20.24;66.98;98386.69;4987256;28;20030;-64
2021/06/16 05:29:07;;;;;;;1.33;0.85;;;;;;;20.32;66.00;98379.94;4987268;28;20027;-64
2021/06/16 05:31:35;;;;;;;3.97;0.90;;;;;;;20.61;65.99;98384.31;5004908;28;20191;-64
2021/06/16 05:34:01;;;;;;;1.48;0.70;;;;;;;20.75;66.39;98384.25;5006808;28;20030;-64
2021/06/16 05:36:26;;;;;;;1.75;0.90;;;;;;;21.15;64.82;98378.09;5006589;28;20022;-64
2021/06/16 05:38:52;;;;;;;2.70;0.80;;;;;;;21.22;63.83;98382.06;4987299;28;20070;-64
2021/06/16 05:41:18;;;;;;;0.98;0.70;;;;;;;21.54;64.20;98376.41;4986985;28;20023;-64
2021/06/16 05:43:43;;;;;;;1.20;0.95;;;;;;;21.91;62.29;98370.28;4986951;28;20086;-64
2021/06/16 05:46:10;;;;;;;2.33;0.95;;;;;;;22.20;62.80;98379.81;4986920;28;20034;-64
2021/06/16 05:48:36;;;;;;;1.45;1.00;;;;;;;22.24;62.50;98381.34;5003340;28;20026;-64
2021/06/16 05:51:01;;;;;;;2.35;0.95;;;;;;;22.43;62.62;98381.78;5006314;28;20046;-64
2021/06/16 05:53:27;;;;;;;1.85;0.93;;;;;;;22.79;61.23;98381.84;5006194;28;20032;-64
2021/06/16 05:55:52;;;;;;;4.05;1.00;;;;;;;22.96;60.37;98382.31;5006205;28;20276;-64
2021/06/16 05:58:17;;;;;;;2.75;1.23;;;;;;;23.15;60.39;98381.81;4992006;28;20029;-64
2021/06/16 06:00:43;;;;;;;1.38;1.00;;;;;;;23.33;60.50;98375.13;4986516;28;20045;-64
2021/06/16 06:03:08;;;;;;;1.60;0.98;;;;;;;22.97;61.36;98385.88;4986603;28;20380;-64
2021/06/16 06:05:34;;;;;;;4.95;1.27;;;;;;;23.56;60.61;98376.06;4986628;28;20034;-64
2021/06/16 06:07:59;;;;;;;0.98;0.80;;;;;;;23.51;62.17;98379.13;4997958;28;20077;-64
2021/06/16 06:10:25;;;;;;;1.20;0.90;;;;;;;24.22;59.08;98377.16;5005945;28;20094;-64
2021/06/16 06:12:50;;;;;;;1.38;1.00;;;;;;;24.53;58.51;98376.47;5005849;28;20037;-64
2021/06/16 06:15:16;;;;;;;1.50;0.98;;;;;;;24.89;57.94;98373.53;5005913;28;20085;-64
2021/06/16 06:17:43;;;;;;;1.08;0.90;;;;;;;25.43;56.71;98368.16;4996949;28;20317;-64
2021/06/16 06:20:09;;;;;;;1.05;0.90;;;;;;;25.63;56.71;98366.50;4986556;28;20034;-64
2021/06/16 06:22:35;;;;;;;3.33;1.13;;;;;;;25.80;55.25;98363.22;4986213;28;20070;-64
2021/06/16 06:25:00;;;;;;;1.35;1.10;;;;;;;26.24;55.64;98360.28;4986231;28;20034;-64
2021/06/16 06:27:25;;;;;;;1.35;1.13;;;;;;;26.30;55.49;98367.88;4992392;28;20228;-64
2021/06/16 06:29:51;;;;;;;2.58;1.08;;;;;;;26.32;55.12;98363.19;5005483;28;20030;-64
2021/06/16 06:32:16;;;;;;;1.92;1.05;;;;;;;26.30;55.31;98359.78;5005452;28;20029;-64
2021/06/16 06:34:42;;;;;;;3.08;1.20;;;;;;;26.79;53.43;98363.44;5005489;28;20026;-64
2021/06/16 06:37:07;;;;;;;2.45;1.10;;;;;;;27.19;52.19;98360.72;5001496;28;20050;-64
2021/06/16 06:39:32;;;;;;;3.25;1.40;;;;;;;27.12;54.78;98354.16;4985915;28;20034;-64
2021/06/16 06:41:58;;;;;;;3.15;1.25;;;;;;;27.54;51.54;98352.97;4985849;28;20030;-64
2021/06/16 06:44:23;;;;;;;1.45;1.20;;;;;;;27.68;51.87;98352.53;4985842;28;20026;-64
2021/06/16 06:46:49;;;;;;;2.25;1.40;;;;;;;28.08;47.64;98355.09;4986693;28;20222;-64
2021/06/16 06:49:14;;;;;;;1.60;1.20;;;;;;;28.58;47.12;98354.72;5005001;28;20030;-64
2021/06/16 06:51:40;;;;;;;1.48;1.20;;;;;;;28.55;47.78;98349.59;5005182;28;20033;-64
2021/06/16 06:54:08;;;;;;;1.88;1.27;;;;;;;29.11;46.26;98353.03;5005055;28;20036;-64
2021/06/16 06:56:38;;;;;;;1.70;1.20;;;;;;;29.70;44.69;98348.97;5005309;28;20191;-64
2021/06/16 06:59:04;;;;;;;1.83;1.20;;;;;;;29.92;44.21;98343.03;4985811;28;20023;-64
2021/06/16 07:01:29;;;;;;;2.50;1.20;;;;;;;29.69;44.48;98339.09;4985876;28;20089;-64
2021/06/16 07:03:55;;;;;;;0.90;0.90;;;;;;;29.83;43.16;98338.56;4985751;28;20026;-64
2021/06/16 07:06:21;;;;;;;2.72;1.10;;;;;;;30.25;45.03;98336.91;4985693;28;20033;-64
2021/06/16 07:08:46;;;;;;;1.40;1.13;;;;;;;30.61;42.88;98341.19;5001649;28;20085;-64
2021/06/16 07:11:11;;;;;;;1.67;0.80;;;;;;;30.43;42.23;98337.69;5004843;28;20026;-65
2021/06/16 07:13:37;;;;;;;2.13;1.00;;;;;;;30.93;43.14;98330.50;5004753;28;20030;-65
2021/06/16 07:16:02;;;;;;;1.63;1.08;;;;;;;30.57;42.74;98334.38;5004808;28;20035;-65
2021/06/16 07:18:28;;;;;;;1.10;1.00;;;;;;;31.19;41.04;98339.41;4991447;28;20065;-65
2021/06/16 07:20:53;;;;;;;1.52;1.00;;;;;;;30.76;39.99;98343.19;4985245;28;20033;-65
2021/06/16 07:23:19;;;;;;;1.60;1.08;;;;;;;30.67;42.45;98343.25;4985253;28;20026;-65
2021/06/16 07:25:44;;;;;;;1.70;1.08;;;;;;;30.72;39.19;98341.75;4985189;28;20030;-65
2021/06/16 07:28:10;;;;;;;1.10;1.00;;;;;;;31.12;40.31;98331.09;4995952;28;20022;-65
2021/06/16 07:30:35;;;;;;;1.42;1.02;;;;;;;31.65;39.79;98330.72;5004591;28;20022;-65
2021/06/16 07:33:01;;;;;;;1.45;0.90;;;;;;;31.52;38.46;98333.09;5004506;28;20080;-64
2021/06/16 07:35:26;;;;;;;1.17;0.90;;;;;;;31.94;37.67;98339.28;5004504;28;20022;-64
2021/06/16 07:37:52;;;;;;;1.00;0.90;;;;;;;32.08;38.42;98333.13;4996186;28;20081;-64
2021/06/16 07:40:17;;;;;;;1.75;0.90;;;;;;;32.52;37.12;98334.47;4984574;28;20276;-64
2021/06/16 07:42:43;;;;;;;2.92;0.85;;;;;;;32.41;38.57;98337.56;4985015;28;20027;-65
2021/06/16 07:45:10;;;;;;;1.40;1.00;;;;;;;32.78;37.60;98335.06;4984990;28;20254;-65
2021/06/16 07:47:35;;;;;;;2.28;1.10;;;;;;;32.70;37.01;98331.50;4990685;28;20023;-65
2021/06/16 07:50:02;;;;;;;1.35;1.00;;;;;;;32.83;36.05;98327.22;5004465;28;20104;-65
2021/06/16 07:52:28;;;;;;;2.70;1.00;;;;;;;33.06;35.36;98322.72;5004282;28;20088;-65
2021/06/16 07:54:54;;;;;;;1.23;0.88;;;;;;;33.15;36.03;98320.78;5004629;28;20023;-65
2021/06/16 07:57:19;;;;;;;1.00;0.90;;;;;;;33.77;36.08;98318.88;5000701;28;20034;-65
2021/06/16 07:59:45;;;;;;;2.85;1.00;;;;;;;33.58;35.38;98313.91;4984623;28;20042;-65
2021/06/16 08:02:10;;;;;;;1.25;0.80;;;;;;;33.85;35.36;98313.38;4984858;28;20314;-65
2021/06/16 08:04:41;;;;;;;1.48;1.13;;;;;;;34.06;33.95;98317.13;4984920;28;20026;-65
2021/06/16 08:07:10;;;;;;;2.77;0.93;;;;;;;33.49;36.20;98317.72;4986079;28;20034;-65
2021/06/16 08:09:37;;;;;;;1.67;0.90;;;;;;;33.91;36.00;98321.69;5003973;28;20252;-65
2021/06/16 08:12:03;;;;;;;0.90;0.73;;;;;;;34.39;34.03;98328.66;5004275;28;20224;-65
2021/06/16 08:14:29;;;;;;;2.08;0.90;;;;;;;34.34;35.97;98320.13;5004215;28;20022;-65
2021/06/16 08:16:54;;;;;;;1.50;0.90;;;;;;;34.05;33.45;98312.72;5004163;28;20089;-65
2021/06/16 08:19:20;;;;;;;1.33;0.90;;;;;;;34.12;32.77;98326.47;4985011;28;20253;-65
2021/06/16 08:21:45;;;;;;;1.63;1.00;;;;;;;33.84;35.79;98322.56;4984662;28;20018;-65
2021/06/16 08:24:11;;;;;;;0.73;0.63;;;;;;;34.30;34.27;98325.13;4984749;28;20030;-65
2021/06/16 08:26:36;;;;;;;1.58;1.00;;;;;;;34.59;34.50;98324.31;4984642;28;20073;-65
2021/06/16 08:29:02;;;;;;;2.20;0.90;;;;;;;34.77;32.97;98322.91;4985102;28;20050;-65
2021/06/16 08:31:27;;;;;;;2.40;0.80;;;;;;;34.78;32.59;98315.56;4984596;28;20026;-65
2021/06/16 08:33:53;;;;;;;0.93;0.77;;;;;;;35.07;32.90;98318.31;4984478;28;20134;-65
2021/06/16 08:36:20;;;;;;;1.90;1.00;;;;;;;34.50;32.93;98319.97;4984797;28;20082;-65
2021/06/16 08:38:45;;;;;;;1.25;0.85;;;;;;;34.83;32.35;98319.41;4998415;28;20233;-65
2021/06/16 08:41:11;;;;;;;1.42;1.00;;;;;;;35.22;33.29;98316.41;5003706;28;20018;-65
2021/06/16 08:43:38;;;;;;;2.15;1.00;;;;;;;35.75;32.65;98313.22;5004178;28;20088;-65
2021/06/16 08:46:12;;;;;;;1.30;0.75;;;;;;;35.63;32.15;98306.59;5003883;28;20022;-65
2021/06/16 08:48:39;;;;;;;1.10;0.70;;;;;;;35.67;32.60;98307.88;4991404;28;20041;-65
2021/06/16 08:51:06;;;;;;;2.13;0.75;;;;;;;35.72;31.57;98308.16;4991844;28;20026;-65
2021/06/16 08:53:31;;;;;;;1.77;0.85;;;;;;;35.93;32.18;98310.06;5006576;28;20057;-65
2021/06/16 08:55:57;;;;;;;2.17;0.82;;;;;;;35.75;29.07;98306.91;5007358;28;20030;-65
2021/06/16 08:58:22;;;;;;;1.45;0.88;;;;;;;36.05;32.36;98306.59;4996682;28;20026;-64
2021/06/16 09:00:48;;;;;;;1.00;0.70;;;;;;;36.43;29.71;98302.50;4987663;28;20073;-64
2021/06/16 09:03:13;;;;;;;3.38;0.80;;;;;;;35.74;27.71;98305.22;4987746;28;20022;-64
2021/06/16 09:05:40;;;;;;;1.48;0.70;;;;;;;35.32;30.72;98305.13;4987667;28;20035;-64
2021/06/16 09:08:23;;;;;;;1.92;0.70;;;;;;;35.40;29.85;98308.63;4995221;28;20022;-64
2021/06/16 09:10:53;;;;;;;0.75;0.60;;;;;;;35.92;27.30;98303.75;5007106;28;20226;-64
2021/06/16 09:13:32;;;;;;;4.45;1.00;;;;;;;34.26;28.38;98307.38;5006988;28;20045;-64
2021/06/16 09:16:00;;;;;;;1.48;0.85;;;;;;;35.38;26.92;98309.88;5006997;28;20026;-64
2021/06/16 09:18:26;;;;;;;0.60;0.60;;;;;;;35.66;30.26;98303.47;4996371;28;20026;-64
2021/06/16 09:20:58;;;;;;;0.95;0.82;;;;;;;35.77;29.18;98300.19;4987689;28;20046;-64
2021/06/16 09:23:26;;;;;;;1.25;0.65;;;;;;;36.31;29.88;98309.56;4987350;28;20337;-64
2021/06/16 09:26:05;;;;;;;1.73;0.60;;;;;;;35.55;28.95;98289.44;4987347;28;20034;-64
2021/06/16 09:28:51;;;;;;;0.68;0.68;;;;;;;36.16;27.82;98297.81;4998217;28;20089;-64
2021/06/16 09:31:19;;;;;;;0.88;0.77;;;;;;;36.16;27.03;98295.06;5007057;28;20368;-64
2021/06/16 09:33:45;;;;;;;1.00;0.80;;;;;;;35.74;29.71;98289.63;5006568;28;20026;-64
2021/06/16 09:36:13;;;;;;;1.23;0.80;;;;;;;36.30;28.96;98288.72;5006867;28;20026;-64
2021/06/16 09:38:40;;;;;;;1.73;0.80;;;;;;;36.50;27.69;98292.41;4994897;28;20054;-64
2021/06/16 09:41:10;;;;;;;2.17;0.80;;;;;;;36.92;26.53;98300.50;4987208;28;20057;-64
2021/06/16 09:43:37;;;;;;;1.20;0.80;;;;;;;36.62;25.64;98300.94;4987045;28;20023;-64
2021/06/16 09:46:06;;;;;;;0.85;0.77;;;;;;;34.58;28.62;98289.84;4987224;28;20026;-64
2021/06/16 09:48:31;;;;;;;1.48;0.60;;;;;;;35.75;24.67;98291.31;4997038;28;20033;-64
2021/06/16 09:51:26;;;;;;;1.73;0.75;;;;;;;36.02;24.74;98287.81;5006311;28;20029;-64
2021/06/16 09:53:56;;;;;;;1.00;0.70;;;;;;;36.32;25.08;98289.34;5006305;28;20027;-64
2021/06/16 09:56:21;;;;;;;1.02;0.70;;;;;;;36.61;25.75;98283.66;5006281;28;20034;-64
2021/06/16 09:58:47;;;;;;;0.60;0.57;;;;;;;36.76;26.71;98291.78;4993419;28;20374;-64
2021/06/16 10:01:12;;;;;;;1.50;0.88;;;;;;;36.57;25.88;98287.00;5002501;28;20026;-64
2021/06/16 10:03:40;;;;;;;0.52;0.52;;;;;;;36.54;25.20;98293.69;5005693;28;20097;-64
2021/06/16 10:06:15;;;;;;;1.55;0.70;;;;;;;36.52;24.25;98289.47;5006067;28;20030;-64
2021/06/16 10:08:49;;;;;;;1.27;0.70;;;;;;;36.42;24.33;98278.03;4994680;28;20250;-64
2021/06/16 10:11:21;;;;;;;1.88;0.80;;;;;;;36.02;27.75;98279.59;4986519;28;20030;-64
2021/06/16 10:13:47;;;;;;;;;;;;;;;35.03;29.07;98278.69;4986836;28;20022;-64
2021/06/16 10:16:13;;;;;;;0.85;0.60;;;;;;;35.68;28.87;98276.69;4986437;28;19933;-64
2021/06/16 10:18:41;;;;;;;0.75;0.50;;;;;;;35.37;26.89;98276.19;4997194;28;20028;-64
2021/06/16 10:21:07;;;;;;;2.58;0.63;;;;;;;34.59;30.31;98280.59;5005790;28;20069;-64
2021/06/16 10:23:33;;;;;;;1.13;0.77;;;;;;;34.67;30.27;98272.31;5005875;28;20025;-64
2021/06/16 10:26:09;;;;;;;2.78;0.70;;;;;;;35.40;30.25;98275.78;5005678;28;20045;-64
2021/06/16 10:28:45;;;;;;;1.85;0.70;;;;;;;34.90;28.02;98273.06;4995362;28;20356;-64
2021/06/16 10:31:12;;;;;;;0.77;0.60;;;;;;;35.54;29.61;98283.09;4986166;28;20028;-64
2021/06/16 10:33:40;;;;;;;1.75;0.93;;;;;;;34.96;29.16;98277.78;4986013;28;20042;-64
2021/06/16 10:36:22;;;;;;;0.90;0.70;;;;;;;34.98;27.66;98275.66;4986257;28;20097;-64
2021/06/16 10:38:56;;;;;;;1.15;0.55;;;;;;;35.59;27.60;98280.59;4997201;28;20026;-64
2021/06/16 10:41:37;;;;;;;1.73;0.50;;;;;;;35.97;28.38;98273.84;5005374;28;20026;-64
2021/06/16 10:44:32;;;;;;;0.80;0.70;;;;;;;35.56;26.41;98263.75;5005638;28;20085;-64
2021/06/16 10:47:00;;;;;;;0.90;0.70;;;;;;;34.15;25.03;98266.00;4992751;28;20317;-64
2021/06/16 10:49:47;;;;;;;2.28;0.70;;;;;;;33.64;27.12;98266.78;4988822;28;20026;-64
2021/06/16 10:52:14;;;;;;;3.10;0.93;;;;;;;34.08;26.48;98257.72;4985757;28;20038;-64
2021/06/16 10:54:59;;;;;;;1.17;0.70;;;;;;;33.97;25.37;98251.84;4985689;28;20081;-64
2021/06/16 10:57:25;;;;;;;1.92;0.70;;;;;;;34.01;26.15;98247.72;4985651;28;20217;-64
2021/06/16 10:59:51;;;;;;;1.88;0.70;;;;;;;34.70;28.16;98250.88;5004603;28;20038;-64
2021/06/16 11:02:28;;;;;;;1.45;0.73;;;;;;;35.07;28.20;98241.69;5005282;28;20093;-64
2021/06/16 11:05:20;;;;;;;0.73;0.73;;;;;;;35.47;27.19;98243.00;5004971;28;20064;-64
2021/06/16 11:07:46;;;;;;;1.60;0.68;;;;;;;35.42;26.76;98249.06;5002326;28;20030;-64
2021/06/16 11:10:13;;;;;;;0.52;0.50;;;;;;;35.61;25.94;98242.94;4985492;28;20037;-64
2021/06/16 11:12:41;;;;;;;0.77;0.55;;;;;;;35.28;26.12;98249.09;4985370;28;20098;-64
2021/06/16 11:15:11;;;;;;;3.25;0.80;;;;;;;35.04;31.16;98239.34;4984650;28;20037;-64
2021/06/16 11:17:36;;;;;;;1.60;0.70;;;;;;;34.39;29.35;98246.66;4999187;28;20441;-64
2021/06/16 11:20:06;;;;;;;1.05;0.60;;;;;;;34.60;28.17;98233.91;4986789;28;20035;-64
2021/06/16 11:22:35;;;;;;;3.22;0.60;;;;;;;34.27;27.43;98237.19;4985554;28;20026;-64
2021/06/16 11:25:09;;;;;;;2.88;0.68;;;;;;;34.67;28.58;98234.03;4985504;28;20023;-64
2021/06/16 11:27:50;;;;;;;0.63;0.60;;;;;;;33.25;28.47;98227.81;4998902;28;20030;-64
2021/06/16 11:30:26;;;;;;;2.60;0.60;;;;;;;33.85;26.03;98232.28;5004597;28;20033;-64
2021/06/16 11:33:20;;;;;;;1.60;0.60;;;;;;;33.08;25.96;98220.78;5004836;28;20030;-64
2021/06/16 11:35:51;;;;;;;3.97;0.82;;;;;;;33.28;29.61;98222.84;5004807;28;20026;-64
2021/06/16 11:38:17;;;;;;;0.63;0.63;;;;;;;32.81;27.94;98213.91;4985630;28;20027;-64